sensor_id;sensor_type;location;lat;lon;timestamp;temperature;humidity
65472;DHT22;52068;50.710;14.492;2023-03-11T00:01:41;25.70;35.22
65472;DHT22;52068;50.710;14.492;2023-03-11T00:04:06;26.12;34.51
65472;DHT22;52068;50.710;14.492;2023-03-11T00:06:35;26.37;33.95
65472;DHT22;52068;50.710;14.492;2023-03-11T00:09:00;26.45;33.44
65472;DHT22;52068;50.710;14.492;2023-03-11T00:11:25;26.44;33.41
65472;DHT22;52068;50.710;14.492;2023-03-11T00:13:51;26.33;33.32
65472;DHT22;52068;50.710;14.492;2023-03-11T00:16:16;26.23;33.47
65472;DHT22;52068;50.710;14.492;2023-03-11T00:18:41;26.01;33.88
65472;DHT22;52068;50.710;14.492;2023-03-11T00:21:12;25.87;33.95
65472;DHT22;52068;50.710;14.492;2023-03-11T00:23:38;25.66;34.32
65472;DHT22;52068;50.710;14.492;2023-03-11T00:26:03;25.45;34.58
65472;DHT22;52068;50.710;14.492;2023-03-11T00:28:28;25.24;34.85
65472;DHT22;52068;50.710;14.492;2023-03-11T00:30:54;25.03;35.19
65472;DHT22;52068;50.710;14.492;2023-03-11T00:33:19;24.85;35.51
65472;DHT22;52068;50.710;14.492;2023-03-11T00:35:44;24.65;35.92
65472;DHT22;52068;50.710;14.492;2023-03-11T00:38:11;24.49;36.21
65472;DHT22;52068;50.710;14.492;2023-03-11T00:40:37;24.32;36.40
65472;DHT22;52068;50.710;14.492;2023-03-11T00:43:03;24.13;36.82
65472;DHT22;52068;50.710;14.492;2023-03-11T00:45:28;24.01;36.89
65472;DHT22;52068;50.710;14.492;2023-03-11T00:47:53;23.84;37.13
65472;DHT22;52068;50.710;14.492;2023-03-11T00:50:20;23.81;36.85
65472;DHT22;52068;50.710;14.492;2023-03-11T00:52:46;23.88;36.78
65472;DHT22;52068;50.710;14.492;2023-03-11T00:55:17;24.06;36.51
65472;DHT22;52068;50.710;14.492;2023-03-11T00:57:43;24.26;36.03
65472;DHT22;52068;50.710;14.492;2023-03-11T01:00:11;24.39;35.79
65472;DHT22;52068;50.710;14.492;2023-03-11T01:02:37;24.43;35.51
65472;DHT22;52068;50.710;14.492;2023-03-11T01:05:03;24.40;35.67
65472;DHT22;52068;50.710;14.492;2023-03-11T01:07:29;24.33;35.76
65472;DHT22;52068;50.710;14.492;2023-03-11T01:09:54;24.24;35.67
65472;DHT22;52068;50.710;14.492;2023-03-11T01:12:20;24.17;36.09
65472;DHT22;52068;50.710;14.492;2023-03-11T01:14:45;24.05;36.10
65472;DHT22;52068;50.710;14.492;2023-03-11T01:17:10;23.93;36.46
65472;DHT22;52068;50.710;14.492;2023-03-11T01:19:35;23.82;36.57
65472;DHT22;52068;50.710;14.492;2023-03-11T01:22:01;23.68;36.98
65472;DHT22;52068;50.710;14.492;2023-03-11T01:24:26;23.54;37.13
65472;DHT22;52068;50.710;14.492;2023-03-11T01:26:51;23.40;37.72
65472;DHT22;52068;50.710;14.492;2023-03-11T01:29:16;23.28;38.08
65472;DHT22;52068;50.710;14.492;2023-03-11T01:31:42;23.15;38.19
65472;DHT22;52068;50.710;14.492;2023-03-11T01:34:07;23.06;38.48
65472;DHT22;52068;50.710;14.492;2023-03-11T01:36:32;22.96;38.46
65472;DHT22;52068;50.710;14.492;2023-03-11T01:38:57;23.04;38.03
65472;DHT22;52068;50.710;14.492;2023-03-11T01:41:23;23.31;37.12
65472;DHT22;52068;50.710;14.492;2023-03-11T01:43:50;23.78;36.72
65472;DHT22;52068;50.710;14.492;2023-03-11T01:46:25;24.23;36.13
65472;DHT22;52068;50.710;14.492;2023-03-11T01:48:55;24.61;35.41
65472;DHT22;52068;50.710;14.492;2023-03-11T01:54:11;24.95;34.40
65472;DHT22;52068;50.710;14.492;2023-03-11T01:56:37;24.94;34.30
65472;DHT22;52068;50.710;14.492;2023-03-11T01:59:03;24.83;34.75
65472;DHT22;52068;50.710;14.492;2023-03-11T02:01:30;24.67;35.08
65472;DHT22;52068;50.710;14.492;2023-03-11T02:03:55;24.54;35.32
65472;DHT22;52068;50.710;14.492;2023-03-11T02:06:21;24.39;35.57
65472;DHT22;52068;50.710;14.492;2023-03-11T02:08:47;24.24;35.87
65472;DHT22;52068;50.710;14.492;2023-03-11T02:11:20;24.12;36.06
65472;DHT22;52068;50.710;14.492;2023-03-11T02:13:46;23.99;36.27
65472;DHT22;52068;50.710;14.492;2023-03-11T02:16:13;23.82;36.78
65472;DHT22;52068;50.710;14.492;2023-03-11T02:18:38;23.68;37.31
65472;DHT22;52068;50.710;14.492;2023-03-11T02:23:41;23.41;37.59
65472;DHT22;52068;50.710;14.492;2023-03-11T02:26:15;23.30;38.12
65472;DHT22;52068;50.710;14.492;2023-03-11T02:28:42;23.21;38.14
65472;DHT22;52068;50.710;14.492;2023-03-11T02:31:08;23.31;37.89
65472;DHT22;52068;50.710;14.492;2023-03-11T02:33:34;23.51;37.26
65472;DHT22;52068;50.710;14.492;2023-03-11T02:36:00;23.84;36.47
65472;DHT22;52068;50.710;14.492;2023-03-11T02:38:26;24.06;36.14
65472;DHT22;52068;50.710;14.492;2023-03-11T02:40:58;24.24;35.76
65472;DHT22;52068;50.710;14.492;2023-03-11T02:43:32;24.34;35.74
65472;DHT22;52068;50.710;14.492;2023-03-11T02:45:57;24.29;35.85
65472;DHT22;52068;50.710;14.492;2023-03-11T02:48:23;24.16;36.21
65472;DHT22;52068;50.710;14.492;2023-03-11T02:50:49;24.05;36.74
65472;DHT22;52068;50.710;14.492;2023-03-11T02:53:15;23.93;36.73
65472;DHT22;52068;50.710;14.492;2023-03-11T02:55:40;23.81;37.01
65472;DHT22;52068;50.710;14.492;2023-03-11T02:58:06;23.65;37.23
65472;DHT22;52068;50.710;14.492;2023-03-11T03:00:31;23.52;37.86
65472;DHT22;52068;50.710;14.492;2023-03-11T03:02:57;23.38;38.22
65472;DHT22;52068;50.710;14.492;2023-03-11T03:05:23;23.27;38.49
65472;DHT22;52068;50.710;14.492;2023-03-11T03:07:48;23.14;38.60
65472;DHT22;52068;50.710;14.492;2023-03-11T03:10:14;23.02;39.03
65472;DHT22;52068;50.710;14.492;2023-03-11T03:12:39;22.92;39.03
65472;DHT22;52068;50.710;14.492;2023-03-11T03:15:05;22.90;38.97
65472;DHT22;52068;50.710;14.492;2023-03-11T03:17:30;23.08;38.22
65472;DHT22;52068;50.710;14.492;2023-03-11T03:19:56;23.54;37.62
65472;DHT22;52068;50.710;14.492;2023-03-11T03:22:21;24.05;36.05
65472;DHT22;52068;50.710;14.492;2023-03-11T03:24:49;24.54;35.64
65472;DHT22;52068;50.710;14.492;2023-03-11T03:27:14;24.87;34.98
65472;DHT22;52068;50.710;14.492;2023-03-11T03:29:39;24.99;34.87
65472;DHT22;52068;50.710;14.492;2023-03-11T03:32:05;25.03;34.87
65472;DHT22;52068;50.710;14.492;2023-03-11T03:34:30;25.01;34.67
65472;DHT22;52068;50.710;14.492;2023-03-11T03:36:55;24.91;35.06
65472;DHT22;52068;50.710;14.492;2023-03-11T03:39:20;24.74;35.45
65472;DHT22;52068;50.710;14.492;2023-03-11T03:41:46;24.54;35.70
65472;DHT22;52068;50.710;14.492;2023-03-11T03:44:11;24.40;35.97
65472;DHT22;52068;50.710;14.492;2023-03-11T03:46:36;24.23;36.23
65472;DHT22;52068;50.710;14.492;2023-03-11T03:49:02;24.09;36.20
65472;DHT22;52068;50.710;14.492;2023-03-11T03:51:28;23.90;36.85
65472;DHT22;52068;50.710;14.492;2023-03-11T03:53:53;23.74;37.38
65472;DHT22;52068;50.710;14.492;2023-03-11T03:56:18;23.59;37.62
65472;DHT22;52068;50.710;14.492;2023-03-11T03:58:43;23.45;38.06
65472;DHT22;52068;50.710;14.492;2023-03-11T04:01:09;23.33;38.20
65472;DHT22;52068;50.710;14.492;2023-03-11T04:03:35;23.20;38.45
65472;DHT22;52068;50.710;14.492;2023-03-11T04:06:35;23.20;38.15
65472;DHT22;52068;50.710;14.492;2023-03-11T04:08:53;23.61;37.20
65472;DHT22;52068;50.710;14.492;2023-03-11T04:11:19;24.19;36.60
65472;DHT22;52068;50.710;14.492;2023-03-11T04:13:44;24.84;35.62
65472;DHT22;52068;50.710;14.492;2023-03-11T04:16:11;25.34;34.64
65472;DHT22;52068;50.710;14.492;2023-03-11T04:18:39;25.76;33.86
65472;DHT22;52068;50.710;14.492;2023-03-11T04:21:05;25.96;33.75
65472;DHT22;52068;50.710;14.492;2023-03-11T04:23:30;26.00;33.43
65472;DHT22;52068;50.710;14.492;2023-03-11T04:25:55;25.94;33.28
65472;DHT22;52068;50.710;14.492;2023-03-11T04:28:21;25.84;33.28
65472;DHT22;52068;50.710;14.492;2023-03-11T04:30:46;25.66;33.75
65472;DHT22;52068;50.710;14.492;2023-03-11T04:33:11;25.49;33.94
65472;DHT22;52068;50.710;14.492;2023-03-11T04:35:37;25.24;34.31
65472;DHT22;52068;50.710;14.492;2023-03-11T04:38:02;25.01;34.59
65472;DHT22;52068;50.710;14.492;2023-03-11T04:40:27;24.75;35.20
65472;DHT22;52068;50.710;14.492;2023-03-11T04:42:53;24.50;35.62
65472;DHT22;52068;50.710;14.492;2023-03-11T04:45:18;24.30;36.00
65472;DHT22;52068;50.710;14.492;2023-03-11T04:47:46;24.06;36.42
65472;DHT22;52068;50.710;14.492;2023-03-11T04:50:11;23.89;36.65
65472;DHT22;52068;50.710;14.492;2023-03-11T04:52:37;23.72;37.17
65472;DHT22;52068;50.710;14.492;2023-03-11T04:55:02;23.54;37.39
65472;DHT22;52068;50.710;14.492;2023-03-11T04:57:27;23.40;37.71
65472;DHT22;52068;50.710;14.492;2023-03-11T04:59:52;23.45;37.40
65472;DHT22;52068;50.710;14.492;2023-03-11T05:02:18;23.81;36.52
65472;DHT22;52068;50.710;14.492;2023-03-11T05:04:43;24.30;35.59
65472;DHT22;52068;50.710;14.492;2023-03-11T05:07:09;24.84;34.71
65472;DHT22;52068;50.710;14.492;2023-03-11T05:09:34;25.38;34.08
65472;DHT22;52068;50.710;14.492;2023-03-11T05:12:00;25.89;33.56
65472;DHT22;52068;50.710;14.492;2023-03-11T05:14:25;26.16;33.57
65472;DHT22;52068;50.710;14.492;2023-03-11T05:16:51;26.34;32.41
65472;DHT22;52068;50.710;14.492;2023-03-11T05:19:16;26.41;32.34
65472;DHT22;52068;50.710;14.492;2023-03-11T05:21:58;26.38;32.18
65472;DHT22;52068;50.710;14.492;2023-03-11T05:24:24;26.21;32.29
65472;DHT22;52068;50.710;14.492;2023-03-11T05:26:52;26.10;32.60
65472;DHT22;52068;50.710;14.492;2023-03-11T05:29:17;25.89;33.02
65472;DHT22;52068;50.710;14.492;2023-03-11T05:31:42;25.70;33.48
65472;DHT22;52068;50.710;14.492;2023-03-11T05:34:08;25.47;33.65
65472;DHT22;52068;50.710;14.492;2023-03-11T05:36:33;25.31;33.97
65472;DHT22;52068;50.710;14.492;2023-03-11T05:38:58;25.03;34.38
65472;DHT22;52068;50.710;14.492;2023-03-11T05:41:24;24.81;34.70
65472;DHT22;52068;50.710;14.492;2023-03-11T05:43:49;24.59;35.07
65472;DHT22;52068;50.710;14.492;2023-03-11T05:46:14;24.40;35.22
65472;DHT22;52068;50.710;14.492;2023-03-11T05:48:40;24.22;35.60
65472;DHT22;52068;50.710;14.492;2023-03-11T05:51:08;24.05;36.00
65472;DHT22;52068;50.710;14.492;2023-03-11T05:53:34;23.88;36.28
65472;DHT22;52068;50.710;14.492;2023-03-11T05:55:59;23.92;36.25
65472;DHT22;52068;50.710;14.492;2023-03-11T05:58:26;24.10;35.99
65472;DHT22;52068;50.710;14.492;2023-03-11T06:00:51;24.43;35.39
65472;DHT22;52068;50.710;14.492;2023-03-11T06:03:17;24.75;35.04
65472;DHT22;52068;50.710;14.492;2023-03-11T06:05:45;25.05;34.17
65472;DHT22;52068;50.710;14.492;2023-03-11T06:08:11;25.25;33.77
65472;DHT22;52068;50.710;14.492;2023-03-11T06:10:36;25.24;34.20
65472;DHT22;52068;50.710;14.492;2023-03-11T06:13:01;25.24;33.97
65472;DHT22;52068;50.710;14.492;2023-03-11T06:15:26;25.10;34.01
65472;DHT22;52068;50.710;14.492;2023-03-11T06:17:52;24.94;34.46
65472;DHT22;52068;50.710;14.492;2023-03-11T06:20:17;24.77;34.96
65472;DHT22;52068;50.710;14.492;2023-03-11T06:22:42;24.54;35.29
65472;DHT22;52068;50.710;14.492;2023-03-11T06:25:08;24.32;35.77
65472;DHT22;52068;50.710;14.492;2023-03-11T06:27:33;24.16;36.12
65472;DHT22;52068;50.710;14.492;2023-03-11T06:29:59;24.01;36.44
65472;DHT22;52068;50.710;14.492;2023-03-11T06:32:24;23.76;37.21
65472;DHT22;52068;50.710;14.492;2023-03-11T06:34:50;23.59;37.46
65472;DHT22;52068;50.710;14.492;2023-03-11T06:37:16;23.35;30.83
65472;DHT22;52068;50.710;14.492;2023-03-11T06:39:41;23.54;34.29
65472;DHT22;52068;50.710;14.492;2023-03-11T06:42:09;25.16;33.23
65472;DHT22;52068;50.710;14.492;2023-03-11T06:44:35;27.43;29.84
65472;DHT22;52068;50.710;14.492;2023-03-11T06:47:01;29.66;26.88
65472;DHT22;52068;50.710;14.492;2023-03-11T06:49:26;31.58;24.30
65472;DHT22;52068;50.710;14.492;2023-03-11T06:51:52;33.05;22.24
65472;DHT22;52068;50.710;14.492;2023-03-11T06:54:17;34.25;20.86
65472;DHT22;52068;50.710;14.492;2023-03-11T06:56:42;35.13;19.59
65472;DHT22;52068;50.710;14.492;2023-03-11T06:59:07;35.63;18.53
65472;DHT22;52068;50.710;14.492;2023-03-11T07:01:33;35.84;17.99
65472;DHT22;52068;50.710;14.492;2023-03-11T07:03:58;35.77;18.22
65472;DHT22;52068;50.710;14.492;2023-03-11T07:06:24;35.34;18.45
65472;DHT22;52068;50.710;14.492;2023-03-11T07:08:50;34.85;19.03
65472;DHT22;52068;50.710;14.492;2023-03-11T07:11:20;34.37;19.69
65472;DHT22;52068;50.710;14.492;2023-03-11T07:13:45;33.90;20.24
65472;DHT22;52068;50.710;14.492;2023-03-11T07:16:18;33.37;20.71
65472;DHT22;52068;50.710;14.492;2023-03-11T07:18:44;32.86;21.29
65472;DHT22;52068;50.710;14.492;2023-03-11T07:21:11;32.33;22.29
65472;DHT22;52068;50.710;14.492;2023-03-11T07:23:37;31.82;22.83
65472;DHT22;52068;50.710;14.492;2023-03-11T07:26:02;31.26;23.40
65472;DHT22;52068;50.710;14.492;2023-03-11T07:28:28;30.68;23.98
65472;DHT22;52068;50.710;14.492;2023-03-11T07:30:54;30.23;24.64
65472;DHT22;52068;50.710;14.492;2023-03-11T07:33:20;29.79;25.02
65472;DHT22;52068;50.710;14.492;2023-03-11T07:35:45;29.33;25.51
65472;DHT22;52068;50.710;14.492;2023-03-11T07:38:13;28.87;26.03
65472;DHT22;52068;50.710;14.492;2023-03-11T07:40:38;28.44;26.69
65472;DHT22;52068;50.710;14.492;2023-03-11T07:43:03;27.97;27.21
65472;DHT22;52068;50.710;14.492;2023-03-11T07:45:28;27.47;28.03
65472;DHT22;52068;50.710;14.492;2023-03-11T07:47:54;27.06;28.36
65472;DHT22;52068;50.710;14.492;2023-03-11T07:50:19;26.71;29.06
65472;DHT22;52068;50.710;14.492;2023-03-11T07:52:46;26.35;29.29
65472;DHT22;52068;50.710;14.492;2023-03-11T07:55:11;26.10;29.97
65472;DHT22;52068;50.710;14.492;2023-03-11T07:57:37;25.86;30.36
65472;DHT22;52068;50.710;14.492;2023-03-11T08:00:02;25.61;30.65
65472;DHT22;52068;50.710;14.492;2023-03-11T08:02:27;25.42;31.37
65472;DHT22;52068;50.710;14.492;2023-03-11T08:04:54;25.19;31.34
65472;DHT22;52068;50.710;14.492;2023-03-11T08:07:19;25.04;31.44
65472;DHT22;52068;50.710;14.492;2023-03-11T08:09:45;24.87;31.99
65472;DHT22;52068;50.710;14.492;2023-03-11T08:12:10;24.84;32.18
65472;DHT22;52068;50.710;14.492;2023-03-11T08:14:35;24.87;32.29
65472;DHT22;52068;50.710;14.492;2023-03-11T08:17:01;24.85;32.31
65472;DHT22;52068;50.710;14.492;2023-03-11T08:19:26;24.80;32.70
65472;DHT22;52068;50.710;14.492;2023-03-11T08:21:51;24.74;32.41
65472;DHT22;52068;50.710;14.492;2023-03-11T08:24:16;24.68;32.76
65472;DHT22;52068;50.710;14.492;2023-03-11T08:26:42;24.50;33.32
65472;DHT22;52068;50.710;14.492;2023-03-11T08:29:07;24.36;33.53
65472;DHT22;52068;50.710;14.492;2023-03-11T08:31:32;24.20;33.79
65472;DHT22;52068;50.710;14.492;2023-03-11T08:34:00;23.99;34.46
65472;DHT22;52068;50.710;14.492;2023-03-11T08:36:26;23.86;34.58
65472;DHT22;52068;50.710;14.492;2023-03-11T08:38:52;23.71;35.12
65472;DHT22;52068;50.710;14.492;2023-03-11T08:41:17;23.54;34.95
65472;DHT22;52068;50.710;14.492;2023-03-11T08:43:42;23.43;35.10
65472;DHT22;52068;50.710;14.492;2023-03-11T08:46:09;23.50;35.27
65472;DHT22;52068;50.710;14.492;2023-03-11T08:48:38;24.16;34.46
65472;DHT22;52068;50.710;14.492;2023-03-11T08:51:10;25.25;33.18
65472;DHT22;52068;50.710;14.492;2023-03-11T08:53:35;26.61;31.17
65472;DHT22;52068;50.710;14.492;2023-03-11T08:56:02;27.87;29.26
65472;DHT22;52068;50.710;14.492;2023-03-11T08:58:27;28.97;27.83
65472;DHT22;52068;50.710;14.492;2023-03-11T09:00:53;29.74;26.90
65472;DHT22;52068;50.710;14.492;2023-03-11T09:03:18;30.08;26.39
65472;DHT22;52068;50.710;14.492;2023-03-11T09:05:43;30.04;26.39
65472;DHT22;52068;50.710;14.492;2023-03-11T09:08:08;29.86;26.48
65472;DHT22;52068;50.710;14.492;2023-03-11T09:10:34;29.61;26.83
65472;DHT22;52068;50.710;14.492;2023-03-11T09:12:59;29.30;27.20
65472;DHT22;52068;50.710;14.492;2023-03-11T09:15:24;28.93;27.49
65472;DHT22;52068;50.710;14.492;2023-03-11T09:17:50;28.57;27.62
65472;DHT22;52068;50.710;14.492;2023-03-11T09:20:15;28.29;28.01
65472;DHT22;52068;50.710;14.492;2023-03-11T09:22:41;27.91;28.75
65472;DHT22;52068;50.710;14.492;2023-03-11T09:25:06;27.58;29.20
65472;DHT22;52068;50.710;14.492;2023-03-11T09:27:31;27.29;29.40
65472;DHT22;52068;50.710;14.492;2023-03-11T09:29:57;26.98;29.61
65472;DHT22;52068;50.710;14.492;2023-03-11T09:32:22;26.68;30.27
65472;DHT22;52068;50.710;14.492;2023-03-11T09:34:47;26.37;30.45
65472;DHT22;52068;50.710;14.492;2023-03-11T09:37:12;26.12;30.96
65472;DHT22;52068;50.710;14.492;2023-03-11T09:39:38;25.79;31.54
65472;DHT22;52068;50.710;14.492;2023-03-11T09:42:11;25.50;32.13
65472;DHT22;52068;50.710;14.492;2023-03-11T09:44:40;25.18;32.63
65472;DHT22;52068;50.710;14.492;2023-03-11T09:55:02;24.26;34.49
65472;DHT22;52068;50.710;14.492;2023-03-11T09:57:32;24.12;34.59
65472;DHT22;52068;50.710;14.492;2023-03-11T09:59:59;24.17;34.23
65472;DHT22;52068;50.710;14.492;2023-03-11T10:02:25;24.41;34.13
65472;DHT22;52068;50.710;14.492;2023-03-11T10:07:37;24.98;33.25
65472;DHT22;52068;50.710;14.492;2023-03-11T10:10:03;25.18;32.91
65472;DHT22;52068;50.710;14.492;2023-03-11T10:12:49;25.19;32.89
65472;DHT22;52068;50.710;14.492;2023-03-11T10:22:56;24.74;34.05
65472;DHT22;52068;50.710;14.492;2023-03-11T10:25:26;24.59;34.10
65472;DHT22;52068;50.710;14.492;2023-03-11T10:30:34;24.40;34.49
65472;DHT22;52068;50.710;14.492;2023-03-11T10:33:11;24.24;35.10
65472;DHT22;52068;50.710;14.492;2023-03-11T10:35:40;24.13;35.03
65472;DHT22;52068;50.710;14.492;2023-03-11T10:38:22;24.02;35.18
65472;DHT22;52068;50.710;14.492;2023-03-11T10:40:49;23.88;35.37
65472;DHT22;52068;50.710;14.492;2023-03-11T10:43:16;23.76;35.83
65472;DHT22;52068;50.710;14.492;2023-03-11T10:45:43;23.65;35.83
65472;DHT22;52068;50.710;14.492;2023-03-11T10:48:19;23.57;36.12
65472;DHT22;52068;50.710;14.492;2023-03-11T10:53:17;23.86;35.25
65472;DHT22;52068;50.710;14.492;2023-03-11T10:55:47;24.30;34.33
65472;DHT22;52068;50.710;14.492;2023-03-11T10:58:21;24.81;33.37
65472;DHT22;52068;50.710;14.492;2023-03-11T11:01:04;25.22;32.89
65472;DHT22;52068;50.710;14.492;2023-03-11T11:03:32;25.56;31.93
65472;DHT22;52068;50.710;14.492;2023-03-11T11:06:05;25.69;31.58
65472;DHT22;52068;50.710;14.492;2023-03-11T11:08:30;25.63;31.70
65472;DHT22;52068;50.710;14.492;2023-03-11T11:11:00;25.47;31.76
65472;DHT22;52068;50.710;14.492;2023-03-11T11:13:29;25.32;32.46
65472;DHT22;52068;50.710;14.492;2023-03-11T11:15:57;25.14;32.84
65472;DHT22;52068;50.710;14.492;2023-03-11T11:21:31;24.75;33.29
65472;DHT22;52068;50.710;14.492;2023-03-11T11:24:07;24.56;33.76
65472;DHT22;52068;50.710;14.492;2023-03-11T11:26:33;24.39;34.10
65472;DHT22;52068;50.710;14.492;2023-03-11T11:31:33;24.12;34.56
65472;DHT22;52068;50.710;14.492;2023-03-11T11:33:58;23.98;34.76
65472;DHT22;52068;50.710;14.492;2023-03-11T11:36:31;23.86;35.37
65472;DHT22;52068;50.710;14.492;2023-03-11T11:38:58;23.75;35.38
65472;DHT22;52068;50.710;14.492;2023-03-11T11:41:25;23.68;35.28
65472;DHT22;52068;50.710;14.492;2023-03-11T11:51:47;25.66;32.11
65472;DHT22;52068;50.710;14.492;2023-03-11T11:56:41;26.49;31.13
65472;DHT22;52068;50.710;14.492;2023-03-11T11:59:14;26.71;30.73
65472;DHT22;52068;50.710;14.492;2023-03-11T12:01:47;26.81;30.48
65472;DHT22;52068;50.710;14.492;2023-03-11T12:14:35;25.94;31.12
65472;DHT22;52068;50.710;14.492;2023-03-11T12:17:06;25.67;31.70
65472;DHT22;52068;50.710;14.492;2023-03-11T12:30:34;24.61;33.10
65472;DHT22;52068;50.710;14.492;2023-03-11T12:33:11;24.50;33.56
65472;DHT22;52068;50.710;14.492;2023-03-11T12:35:38;24.36;34.30
65472;DHT22;52068;50.710;14.492;2023-03-11T12:38:05;24.29;34.19
65472;DHT22;52068;50.710;14.492;2023-03-11T12:43:02;24.81;33.30
65472;DHT22;52068;50.710;14.492;2023-03-11T12:49:04;25.65;32.65
65472;DHT22;52068;50.710;14.492;2023-03-11T12:51:01;25.80;32.47
65472;DHT22;52068;50.710;14.492;2023-03-11T12:53:45;25.82;32.14
65472;DHT22;52068;50.710;14.492;2023-03-11T13:01:23;25.56;32.08
65472;DHT22;52068;50.710;14.492;2023-03-11T13:03:58;25.41;32.18
65472;DHT22;52068;50.710;14.492;2023-03-11T13:08:51;24.99;33.24
65472;DHT22;52068;50.710;14.492;2023-03-11T13:11:25;24.80;33.65
65472;DHT22;52068;50.710;14.492;2023-03-11T13:13:52;24.59;33.91
65472;DHT22;52068;50.710;14.492;2023-03-11T13:18:47;24.26;34.56
65472;DHT22;52068;50.710;14.492;2023-03-11T13:24:54;23.92;34.83
65472;DHT22;52068;50.710;14.492;2023-03-11T13:29:26;23.65;35.53
65472;DHT22;52068;50.710;14.492;2023-03-11T13:44:46;24.75;33.82
65472;DHT22;52068;50.710;14.492;2023-03-11T13:47:15;24.90;33.72
65472;DHT22;52068;50.710;14.492;2023-03-11T13:52:16;24.92;34.38
65472;DHT22;52068;50.710;14.492;2023-03-11T13:57:56;24.70;35.05
65472;DHT22;52068;50.710;14.492;2023-03-11T14:00:22;24.60;35.08
65472;DHT22;52068;50.710;14.492;2023-03-11T14:02:49;24.57;35.12
65472;DHT22;52068;50.710;14.492;2023-03-11T14:05:36;24.43;35.49
65472;DHT22;52068;50.710;14.492;2023-03-11T14:08:20;24.30;35.73
65472;DHT22;52068;50.710;14.492;2023-03-11T14:10:52;24.20;35.91
65472;DHT22;52068;50.710;14.492;2023-03-11T14:13:18;24.09;36.12
65472;DHT22;52068;50.710;14.492;2023-03-11T14:20:53;23.74;36.68
65472;DHT22;52068;50.710;14.492;2023-03-11T14:23:18;23.66;36.88
65472;DHT22;52068;50.710;14.492;2023-03-11T14:25:44;23.71;36.76
65472;DHT22;52068;50.710;14.492;2023-03-11T14:28:17;23.85;36.68
65472;DHT22;52068;50.710;14.492;2023-03-11T14:30:53;24.13;36.08
65472;DHT22;52068;50.710;14.492;2023-03-11T14:33:20;24.44;34.92
65472;DHT22;52068;50.710;14.492;2023-03-11T14:35:55;24.73;34.50
65472;DHT22;52068;50.710;14.492;2023-03-11T14:38:22;24.84;34.49
65472;DHT22;52068;50.710;14.492;2023-03-11T14:40:49;24.94;33.88
65472;DHT22;52068;50.710;14.492;2023-03-11T14:43:14;24.91;33.92
65472;DHT22;52068;50.710;14.492;2023-03-11T14:45:40;24.84;33.92
65472;DHT22;52068;50.710;14.492;2023-03-11T14:48:11;24.75;34.04
65472;DHT22;52068;50.710;14.492;2023-03-11T14:50:39;24.64;34.27
65472;DHT22;52068;50.710;14.492;2023-03-11T14:56:10;24.37;34.62
65472;DHT22;52068;50.710;14.492;2023-03-11T14:58:34;24.26;34.67
65472;DHT22;52068;50.710;14.492;2023-03-11T15:01:03;24.13;34.94
65472;DHT22;52068;50.710;14.492;2023-03-11T15:03:31;23.98;35.18
65472;DHT22;52068;50.710;14.492;2023-03-11T15:08:28;23.74;35.93
65472;DHT22;52068;50.710;14.492;2023-03-11T15:13:53;23.69;36.05
65472;DHT22;52068;50.710;14.492;2023-03-11T15:16:28;24.09;35.28
65472;DHT22;52068;50.710;14.492;2023-03-11T15:18:54;24.65;34.79
65472;DHT22;52068;50.710;14.492;2023-03-11T15:21:23;25.28;33.90
65472;DHT22;52068;50.710;14.492;2023-03-11T15:23:50;25.90;32.85
65472;DHT22;52068;50.710;14.492;2023-03-11T15:26:25;26.34;32.30
65472;DHT22;52068;50.710;14.492;2023-03-11T15:33:48;26.89;30.75
65472;DHT22;52068;50.710;14.492;2023-03-11T15:39:12;26.64;31.22
65472;DHT22;52068;50.710;14.492;2023-03-11T15:41:39;26.41;31.55
65472;DHT22;52068;50.710;14.492;2023-03-11T15:44:04;26.16;31.64
65472;DHT22;52068;50.710;14.492;2023-03-11T15:46:32;25.94;32.02
65472;DHT22;52068;50.710;14.492;2023-03-11T15:48:57;25.73;32.04
65472;DHT22;52068;50.710;14.492;2023-03-11T15:51:23;25.49;32.48
65472;DHT22;52068;50.710;14.492;2023-03-11T15:53:48;25.28;32.82
65472;DHT22;52068;50.710;14.492;2023-03-11T15:56:16;25.11;32.59
65472;DHT22;52068;50.710;14.492;2023-03-11T15:58:46;24.88;33.78
65472;DHT22;52068;50.710;14.492;2023-03-11T16:01:11;24.71;33.89
65472;DHT22;52068;50.710;14.492;2023-03-11T16:03:37;24.49;34.29
65472;DHT22;52068;50.710;14.492;2023-03-11T16:06:02;24.36;34.36
65472;DHT22;52068;50.710;14.492;2023-03-11T16:08:28;24.13;34.59
65472;DHT22;52068;50.710;14.492;2023-03-11T16:10:53;23.99;34.97
65472;DHT22;52068;50.710;14.492;2023-03-11T16:13:19;24.01;35.00
65472;DHT22;52068;50.710;14.492;2023-03-11T16:15:44;24.27;34.32
65472;DHT22;52068;50.710;14.492;2023-03-11T16:18:10;24.71;33.64
65472;DHT22;52068;50.710;14.492;2023-03-11T16:20:38;25.14;32.98
65472;DHT22;52068;50.710;14.492;2023-03-11T16:23:04;25.42;32.61
65472;DHT22;52068;50.710;14.492;2023-03-11T16:25:32;25.53;32.19
65472;DHT22;52068;50.710;14.492;2023-03-11T16:27:58;25.53;31.94
65472;DHT22;52068;50.710;14.492;2023-03-11T16:30:24;25.53;31.90
65472;DHT22;52068;50.710;14.492;2023-03-11T16:32:50;25.39;32.03
65472;DHT22;52068;50.710;14.492;2023-03-11T16:35:15;25.24;32.18
65472;DHT22;52068;50.710;14.492;2023-03-11T16:37:41;25.07;32.39
65472;DHT22;52068;50.710;14.492;2023-03-11T16:40:10;24.84;33.39
65472;DHT22;52068;50.710;14.492;2023-03-11T16:42:36;24.67;33.63
65472;DHT22;52068;50.710;14.492;2023-03-11T16:45:01;24.47;33.84
65472;DHT22;52068;50.710;14.492;2023-03-11T16:47:26;24.33;33.80
65472;DHT22;52068;50.710;14.492;2023-03-11T16:49:52;24.13;34.29
65472;DHT22;52068;50.710;14.492;2023-03-11T16:52:18;24.02;34.08
65472;DHT22;52068;50.710;14.492;2023-03-11T16:54:45;23.85;34.86
65472;DHT22;52068;50.710;14.492;2023-03-11T16:57:10;23.68;35.03
65472;DHT22;52068;50.710;14.492;2023-03-11T16:59:35;23.57;35.45
65472;DHT22;52068;50.710;14.492;2023-03-11T17:02:00;23.45;35.42
65472;DHT22;52068;50.710;14.492;2023-03-11T17:04:26;23.47;35.82
65472;DHT22;52068;50.710;14.492;2023-03-11T17:06:51;23.61;34.93
65472;DHT22;52068;50.710;14.492;2023-03-11T17:09:17;23.81;34.65
65472;DHT22;52068;50.710;14.492;2023-03-11T17:11:42;24.02;34.65
65472;DHT22;52068;50.710;14.492;2023-03-11T17:14:07;24.16;34.58
65472;DHT22;52068;50.710;14.492;2023-03-11T17:16:33;24.23;34.26
65472;DHT22;52068;50.710;14.492;2023-03-11T17:18:59;24.20;34.36
65472;DHT22;52068;50.710;14.492;2023-03-11T17:21:25;24.16;34.38